Central Virginia Flyers


Central Virginia Flyers is a 10 member flying club based in Richmond, VA at Hanover County Airport (KOFP). We own N787AT, a 1977 Cessna 172 with 180hp conversion. If you are interested in membership, please contact Brenton at [email protected]


Aviation Digital Data Service (ADDS)

Output produced by METARs form (1427 UTC 21 August 2019)
found at http://aviationweather.gov/metar/data/
 
KOFP 211354Z AUTO 19009KT 10SM CLR 27/22 A3002 RMK AO2 SLP164 T02670217
KRIC 211354Z 20012KT 10SM FEW015 FEW021 BKN130 BKN170 BKN300 26/23 A3001 RMK AO2 SLP165 T02610228
KRIC 211120Z 2112/2212 20010KT P6SM SCT100 BKN150 
     FM211700 21012G18KT P6SM VCSH BKN050 
     FM220000 21009KT P6SM SCT050 BKN100